Time;durP1;ratioP1;P1;durP2;ratioP2;P2;SDS_P1;SDS_P2;PMS_P1;PMS_P2;Temp;Humidity;BMP_temperature;BMP_pressure;BME280_temperature;BME280_humidity;BME280_pressure;Samples;Min_cycle;Max_cycle;Signal;HPM_P1;HPM_P2
2022/03/28 00:01:14;;;;;;;23.05;13.65;;;8.40;99.90;;;;;;4944372;28;20053;-80
2022/03/28 00:03:40;;;;;;;25.08;14.20;;;8.30;99.90;;;;;;4959647;28;20494;-83
2022/03/28 00:06:09;;;;;;;23.15;12.95;;;8.20;99.90;;;;;;4945395;28;20022;-82
2022/03/28 00:08:35;;;;;;;24.80;12.70;;;8.10;99.90;;;;;;4932748;28;21363;-82
2022/03/28 00:11:00;;;;;;;28.48;13.77;;;8.10;99.90;;;;;;4941116;28;20114;-83
2022/03/28 00:13:26;;;;;;;26.92;14.52;;;7.90;99.90;;;;;;4931264;28;20034;-83
2022/03/28 00:15:52;;;;;;;24.92;13.55;;;8.00;99.90;;;;;;4941235;28;20045;-82
2022/03/28 00:18:17;;;;;;;26.50;14.00;;;8.00;99.90;;;;;;4945596;28;20033;-82
2022/03/28 00:20:46;;;;;;;25.60;13.75;;;7.90;99.90;;;;;;4957905;28;20129;-82
2022/03/28 00:23:14;;;;;;;23.05;12.80;;;7.90;99.90;;;;;;4951247;28;20042;-82
2022/03/28 00:25:44;;;;;;;21.80;12.27;;;7.70;99.90;;;;;;4937629;28;20398;-83
2022/03/28 00:28:10;;;;;;;27.80;12.85;;;7.60;99.90;;;;;;4937074;28;20050;-81
2022/03/28 00:30:35;;;;;;;21.80;12.43;;;7.70;99.90;;;;;;4954242;28;20058;-82
2022/03/28 00:33:01;;;;;;;21.60;13.02;;;7.80;99.90;;;;;;4931382;28;20038;-82
2022/03/28 00:35:26;;;;;;;29.70;12.90;;;7.90;99.90;;;;;;4933510;28;20115;-82
2022/03/28 00:37:53;;;;;;;26.05;13.60;;;7.80;99.90;;;;;;4953456;28;20027;-82
2022/03/28 00:40:19;;;;;;;24.27;13.20;;;7.80;99.90;;;;;;4937617;28;20033;-82
2022/03/28 00:42:45;;;;;;;26.80;11.70;;;7.70;99.90;;;;;;4936487;28;20042;-82
2022/03/28 00:45:11;;;;;;;22.60;12.45;;;7.60;99.90;;;;;;4934690;28;20033;-82
2022/03/28 00:47:36;;;;;;;23.88;13.13;;;7.50;99.90;;;;;;4936743;28;20406;-81
2022/03/28 00:50:03;;;;;;;21.90;11.85;;;7.60;99.90;;;;;;4950459;28;20182;-82
2022/03/28 00:52:28;;;;;;;23.27;12.07;;;7.60;99.90;;;;;;4937148;28;20035;-82
2022/03/28 00:54:55;;;;;;;24.25;14.82;;;7.40;99.90;;;;;;4952056;28;20030;-82
2022/03/28 00:57:21;;;;;;;22.67;12.63;;;7.20;99.90;;;;;;4935405;28;20027;-81
2022/03/28 00:59:46;;;;;;;22.15;12.23;;;7.20;99.90;;;;;;4934336;28;20038;-81
2022/03/28 01:02:12;;;;;;;23.75;11.85;;;7.20;99.90;;;;;;4933664;28;20097;-82
2022/03/28 01:04:37;;;;;;;26.98;12.25;;;7.30;99.90;;;;;;4933524;28;20522;-81
2022/03/28 01:07:06;;;;;;;23.58;13.25;;;7.50;99.90;;;;;;4943626;28;20410;-82
2022/03/28 01:09:32;;;;;;;23.58;13.27;;;7.50;99.90;;;;;;4938644;28;20457;-81
2022/03/28 01:11:57;;;;;;;23.95;13.60;;;7.50;99.90;;;;;;4937005;28;20185;-81
2022/03/28 01:14:23;;;;;;;24.60;13.13;;;7.30;99.90;;;;;;4945977;28;20393;-82
2022/03/28 01:19:33;;;;;;;26.42;13.20;;;7.20;99.90;;;;;;4952880;28;20056;-81
2022/03/28 01:21:59;;;;;;;24.75;13.57;;;7.10;99.90;;;;;;4932423;28;20541;-81
2022/03/28 01:24:24;;;;;;;20.25;11.77;;;7.00;99.90;;;;;;4930219;28;20477;-82
2022/03/28 01:26:50;;;;;;;25.35;13.43;;;6.90;99.90;;;;;;4947280;28;20394;-81
2022/03/28 01:29:15;;;;;;;24.27;13.32;;;6.80;99.90;;;;;;4934889;28;20038;-81
2022/03/28 01:31:41;;;;;;;23.83;13.98;;;6.80;99.90;;;;;;4950486;28;20121;-81
2022/03/28 01:34:06;;;;;;;24.45;13.50;;;6.70;99.90;;;;;;4935751;28;20043;-82
2022/03/28 01:36:32;;;;;;;23.67;12.95;;;6.60;99.90;;;;;;4929443;28;20464;-81
2022/03/28 01:38:58;;;;;;;27.95;13.85;;;6.60;99.90;;;;;;4932432;28;20052;-81
2022/03/28 01:41:23;;;;;;;24.23;13.32;;;6.60;99.90;;;;;;4928141;28;20034;-81
2022/03/28 01:43:49;;;;;;;23.98;14.13;;;6.60;99.90;;;;;;4948433;28;20035;-81
2022/03/28 01:46:15;;;;;;;25.90;14.32;;;6.70;99.90;;;;;;4952651;28;20081;-82
2022/03/28 01:48:41;;;;;;;22.45;13.15;;;6.70;99.90;;;;;;4942298;28;20299;-81
2022/03/28 01:51:06;;;;;;;23.55;12.65;;;6.60;99.90;;;;;;4935776;28;20035;-81
2022/03/28 01:53:32;;;;;;;25.13;13.38;;;6.70;99.90;;;;;;4945866;28;20121;-81
2022/03/28 01:55:57;;;;;;;26.52;13.15;;;6.60;99.90;;;;;;4966405;28;20067;-81
2022/03/28 01:58:23;;;;;;;24.08;13.25;;;6.60;99.90;;;;;;4940743;28;20141;-81
2022/03/28 02:00:48;;;;;;;26.98;13.90;;;6.50;99.90;;;;;;4935445;28;20035;-81
2022/03/28 02:03:14;;;;;;;24.90;13.10;;;6.40;99.90;;;;;;4934937;28;20038;-81
2022/03/28 02:05:39;;;;;;;23.50;12.38;;;6.50;99.90;;;;;;4946741;28;20439;-81
2022/03/28 02:08:05;;;;;;;29.95;14.48;;;6.70;99.90;;;;;;4953753;28;20116;-81
2022/03/28 02:10:31;;;;;;;22.25;13.43;;;6.40;99.90;;;;;;4938248;28;20035;-81
2022/03/28 02:12:56;;;;;;;23.17;12.45;;;6.30;99.90;;;;;;4931312;28;20113;-81
2022/03/28 02:15:22;;;;;;;23.98;13.48;;;6.40;99.90;;;;;;4941656;28;20117;-80
2022/03/28 02:17:48;;;;;;;24.05;12.98;;;6.50;99.90;;;;;;4939888;28;20035;-81
2022/03/28 02:20:14;;;;;;;29.50;13.60;;;6.50;99.90;;;;;;4942369;28;20026;-81
2022/03/28 02:22:40;;;;;;;25.33;13.23;;;6.20;99.90;;;;;;4965397;28;20023;-80
2022/03/28 02:25:06;;;;;;;23.95;13.18;;;6.20;99.90;;;;;;4949200;28;20253;-80
2022/03/28 02:27:32;;;;;;;18.42;10.68;;;6.30;99.90;;;;;;4955846;28;20490;-80
2022/03/28 02:29:58;;;;;;;19.77;11.27;;;6.50;99.90;;;;;;4939637;28;20126;-80
2022/03/28 02:32:23;;;;;;;17.30;10.07;;;6.50;99.90;;;;;;4938405;28;20038;-80
2022/03/28 02:34:49;;;;;;;23.88;11.23;;;6.60;99.90;;;;;;4952801;28;20114;-81
2022/03/28 02:37:15;;;;;;;27.23;12.85;;;6.50;99.90;;;;;;4957238;28;20077;-81
2022/03/28 02:39:40;;;;;;;22.42;11.77;;;6.40;99.90;;;;;;4949968;28;20545;-81
2022/03/28 02:42:06;;;;;;;24.95;12.80;;;6.20;99.90;;;;;;4937317;28;20153;-81
2022/03/28 02:44:32;;;;;;;24.33;12.38;;;6.00;99.90;;;;;;4941820;28;20033;-80
2022/03/28 02:46:57;;;;;;;21.73;13.05;;;5.80;99.90;;;;;;4942554;28;20057;-80
2022/03/28 02:49:23;;;;;;;25.70;13.60;;;5.80;99.90;;;;;;4940771;28;20389;-81
2022/03/28 02:51:48;;;;;;;25.38;12.88;;;5.90;99.90;;;;;;4936130;28;20035;-80
2022/03/28 02:54:14;;;;;;;23.33;12.77;;;6.00;99.90;;;;;;4941539;28;20034;-80
2022/03/28 02:56:40;;;;;;;22.42;13.35;;;6.10;99.90;;;;;;4948220;28;20458;-79
2022/03/28 02:59:05;;;;;;;28.70;13.35;;;6.20;99.90;;;;;;4936601;28;20031;-81
2022/03/28 03:01:31;;;;;;;23.38;12.82;;;6.20;99.90;;;;;;4927533;28;20418;-80
2022/03/28 03:03:56;;;;;;;15.95;10.30;;;6.10;99.90;;;;;;4939933;28;20030;-80
2022/03/28 03:06:22;;;;;;;21.60;12.55;;;6.10;99.90;;;;;;4953462;28;20057;-80
2022/03/28 03:08:48;;;;;;;26.02;12.93;;;6.10;99.90;;;;;;4935708;28;20408;-80
2022/03/28 03:11:13;;;;;;;19.88;11.95;;;6.20;99.90;;;;;;4955686;28;20058;-81
2022/03/28 03:13:39;;;;;;;25.58;13.80;;;6.10;99.90;;;;;;4933252;28;20043;-81
2022/03/28 03:16:05;;;;;;;21.38;10.93;;;6.20;99.90;;;;;;4933296;28;20084;-80
2022/03/28 03:18:30;;;;;;;18.70;10.32;;;6.10;99.90;;;;;;4953260;28;20037;-81
2022/03/28 03:20:56;;;;;;;16.02;8.88;;;6.10;99.90;;;;;;4949896;28;20050;-80
2022/03/28 03:23:22;;;;;;;15.05;8.90;;;6.20;99.90;;;;;;4950357;28;20034;-80
2022/03/28 03:25:48;;;;;;;19.85;10.63;;;6.10;99.90;;;;;;4923943;28;20081;-80
2022/03/28 03:28:15;;;;;;;18.95;10.15;;;6.10;99.90;;;;;;4939557;28;20374;-80
2022/03/28 03:30:40;;;;;;;20.58;10.98;;;6.00;99.90;;;;;;4960740;28;20034;-80
2022/03/28 03:33:07;;;;;;;18.52;11.93;;;6.00;99.90;;;;;;4941618;28;20092;-80
2022/03/28 03:35:33;;;;;;;24.08;11.98;;;6.00;99.90;;;;;;4941070;28;20031;-80
2022/03/28 03:37:58;;;;;;;21.83;12.35;;;5.90;99.90;;;;;;4952272;28;20041;-80
2022/03/28 03:40:24;;;;;;;23.52;12.57;;;5.70;99.90;;;;;;4939825;28;20104;-80
2022/03/28 03:42:49;;;;;;;25.13;12.77;;;5.50;99.90;;;;;;4936408;28;20495;-80
2022/03/28 03:45:15;;;;;;;22.02;12.18;;;5.60;99.90;;;;;;4938559;28;20450;-80
2022/03/28 03:47:40;;;;;;;23.60;11.52;;;5.50;99.90;;;;;;4934682;28;20402;-80
2022/03/28 03:50:07;;;;;;;22.88;12.20;;;5.50;99.90;;;;;;4954557;28;20114;-80
2022/03/28 03:52:33;;;;;;;20.90;11.73;;;5.50;99.90;;;;;;4937292;28;20033;-81
2022/03/28 03:54:58;;;;;;;23.40;12.13;;;5.50;99.90;;;;;;4957818;28;20111;-80
2022/03/28 03:57:24;;;;;;;22.27;11.95;;;5.40;99.90;;;;;;4938932;28;20112;-80
2022/03/28 03:59:50;;;;;;;25.23;12.25;;;5.20;99.90;;;;;;4934610;28;20080;-80
2022/03/28 04:02:16;;;;;;;27.30;12.07;;;5.10;99.90;;;;;;4937911;28;20031;-80
2022/03/28 04:04:41;;;;;;;21.27;12.75;;;5.00;99.90;;;;;;4933026;28;20366;-80
2022/03/28 04:07:07;;;;;;;25.80;13.35;;;5.20;99.90;;;;;;4940130;28;20033;-80
2022/03/28 04:09:32;;;;;;;19.60;10.80;;;5.40;99.90;;;;;;4952597;28;20034;-80
2022/03/28 04:11:58;;;;;;;18.92;9.55;;;5.40;99.90;;;;;;4936632;28;20101;-80
2022/03/28 04:14:24;;;;;;;19.00;10.60;;;5.40;99.90;;;;;;4947550;28;20069;-80
2022/03/28 04:16:49;;;;;;;24.73;12.05;;;5.30;99.90;;;;;;4936338;28;20062;-80
2022/03/28 04:19:15;;;;;;;23.25;12.65;;;5.30;99.90;;;;;;4954847;28;20457;-80
2022/03/28 04:21:41;;;;;;;25.83;14.05;;;5.20;99.90;;;;;;4945933;28;20141;-80
2022/03/28 04:24:07;;;;;;;25.63;13.55;;;5.20;99.90;;;;;;4936283;28;20026;-81
2022/03/28 04:26:32;;;;;;;26.52;14.05;;;5.20;99.90;;;;;;4949991;28;20404;-80
2022/03/28 04:28:58;;;;;;;23.83;13.50;;;5.20;99.90;;;;;;4937400;28;20030;-80
2022/03/28 04:31:23;;;;;;;22.90;12.50;;;5.20;99.90;;;;;;4941171;28;20037;-80
2022/03/28 04:33:50;;;;;;;22.90;13.00;;;5.10;99.90;;;;;;4936499;28;20034;-80
2022/03/28 04:36:15;;;;;;;27.48;13.10;;;5.00;99.90;;;;;;4962217;28;20049;-81
2022/03/28 04:38:41;;;;;;;27.10;13.93;;;5.20;99.90;;;;;;4935956;28;20042;-79
2022/03/28 04:41:07;;;;;;;20.42;10.73;;;5.00;99.90;;;;;;4953792;28;20034;-80
2022/03/28 04:43:32;;;;;;;18.02;10.52;;;5.10;99.90;;;;;;4958280;28;20080;-80
2022/03/28 04:45:58;;;;;;;23.60;11.35;;;5.30;99.90;;;;;;4965041;28;20401;-80
2022/03/28 04:48:23;;;;;;;22.88;12.07;;;5.20;99.90;;;;;;4958301;28;20022;-80
2022/03/28 04:50:49;;;;;;;23.60;11.43;;;5.00;99.90;;;;;;4934673;28;20359;-80
2022/03/28 04:53:16;;;;;;;27.58;11.93;;;4.90;99.90;;;;;;4965580;28;20046;-80
2022/03/28 04:55:42;;;;;;;23.15;12.50;;;5.00;99.90;;;;;;4927741;28;20046;-80
2022/03/28 04:58:08;;;;;;;23.38;11.73;;;5.00;99.90;;;;;;4928884;28;20042;-80
2022/03/28 05:00:33;;;;;;;25.02;13.23;;;5.00;99.90;;;;;;4949665;28;20482;-80
2022/03/28 05:02:59;;;;;;;15.82;9.10;;;4.90;99.90;;;;;;4948657;28;20031;-80
2022/03/28 05:05:25;;;;;;;23.23;12.32;;;4.70;99.90;;;;;;4966007;28;20037;-80
2022/03/28 05:07:50;;;;;;;21.58;11.60;;;5.00;99.90;;;;;;4967228;28;20063;-80
2022/03/28 05:10:18;;;;;;;15.23;8.70;;;4.90;99.90;;;;;;4948533;28;20038;-82
2022/03/28 05:12:45;;;;;;;27.48;11.63;;;5.00;99.90;;;;;;4930045;28;20023;-81
2022/03/28 05:15:11;;;;;;;24.15;11.55;;;5.00;99.90;;;;;;4935193;28;20056;-82
2022/03/28 05:17:37;;;;;;;23.92;12.25;;;4.80;99.90;;;;;;4934155;28;20031;-81
2022/03/28 05:20:04;;;;;;;25.75;12.30;;;4.70;99.90;;;;;;4939370;28;20033;-82
2022/03/28 05:22:29;;;;;;;21.48;12.75;;;4.80;99.90;;;;;;4936845;28;20073;-80
2022/03/28 05:24:55;;;;;;;18.80;10.18;;;4.70;99.90;;;;;;4964506;28;20102;-81
2022/03/28 05:27:20;;;;;;;20.65;10.57;;;4.90;99.90;;;;;;4936715;28;20509;-82
2022/03/28 05:29:46;;;;;;;23.02;12.13;;;5.00;99.90;;;;;;4933808;28;20057;-82
2022/03/28 05:32:12;;;;;;;23.30;12.20;;;4.80;99.90;;;;;;4938821;28;20151;-81
2022/03/28 05:34:37;;;;;;;25.92;12.93;;;4.60;99.90;;;;;;4934596;28;20077;-81
2022/03/28 05:37:10;;;;;;;28.73;12.50;;;4.40;99.90;;;;;;4943978;28;20051;-79
2022/03/28 05:39:36;;;;;;;27.33;13.55;;;4.40;99.90;;;;;;4951872;28;20332;-79
2022/03/28 05:42:02;;;;;;;20.63;11.23;;;4.30;99.90;;;;;;4932765;28;20454;-81
2022/03/28 05:44:27;;;;;;;21.83;11.25;;;4.40;99.90;;;;;;4937017;28;20046;-81
2022/03/28 05:46:53;;;;;;;18.85;9.73;;;4.50;99.90;;;;;;4949078;28;20029;-79
2022/03/28 05:49:25;;;;;;;22.63;12.00;;;4.70;99.90;;;;;;4947487;28;20022;-82
2022/03/28 05:51:51;;;;;;;24.98;13.07;;;4.70;99.90;;;;;;4950582;28;20092;-80
2022/03/28 05:54:17;;;;;;;24.85;12.27;;;4.60;99.90;;;;;;4939241;28;20053;-79
2022/03/28 05:56:42;;;;;;;21.83;10.23;;;4.60;99.90;;;;;;4944404;28;20089;-82
2022/03/28 05:59:08;;;;;;;16.67;10.68;;;4.70;99.90;;;;;;4947809;28;20150;-82
2022/03/28 06:01:36;;;;;;;21.77;10.98;;;4.80;99.90;;;;;;4936037;28;20491;-82
2022/03/28 06:04:02;;;;;;;25.98;12.82;;;4.90;99.90;;;;;;4928855;28;20502;-82
2022/03/28 06:06:28;;;;;;;15.45;9.52;;;4.90;99.90;;;;;;4938483;28;20065;-81
2022/03/28 06:08:54;;;;;;;22.65;11.48;;;5.00;99.90;;;;;;4938857;28;20130;-80
2022/03/28 06:11:20;;;;;;;16.75;8.10;;;5.30;99.90;;;;;;4929887;28;20046;-82
2022/03/28 06:13:45;;;;;;;30.00;12.73;;;5.30;99.90;;;;;;4943027;28;20042;-83
2022/03/28 06:16:11;;;;;;;22.92;10.82;;;5.10;99.90;;;;;;4965927;28;20098;-80
2022/03/28 06:18:36;;;;;;;29.20;14.77;;;5.10;99.90;;;;;;4934238;28;20042;-80
2022/03/28 06:21:02;;;;;;;28.75;14.95;;;5.20;99.90;;;;;;4953658;28;20026;-80
2022/03/28 06:23:27;;;;;;;25.73;12.77;;;5.10;99.90;;;;;;4934855;28;20393;-82
2022/03/28 06:25:53;;;;;;;22.33;12.35;;;5.10;99.90;;;;;;4933478;28;20371;-83
2022/03/28 06:28:18;;;;;;;28.23;14.05;;;5.20;99.90;;;;;;4954319;28;20038;-83
2022/03/28 06:30:44;;;;;;;27.30;13.93;;;5.30;99.90;;;;;;4934426;28;20085;-83
2022/03/28 06:33:10;;;;;;;24.23;13.98;;;5.30;99.90;;;;;;4953691;28;20027;-80
2022/03/28 06:35:38;;;;;;;26.80;14.60;;;5.40;99.90;;;;;;4932343;28;20098;-81
2022/03/28 06:38:05;;;;;;;23.08;10.52;;;5.60;99.90;;;;;;4931242;28;20038;-82
2022/03/28 06:40:30;;;;;;;24.50;12.60;;;6.00;99.90;;;;;;4965988;28;20130;-80
2022/03/28 06:42:56;;;;;;;29.88;15.55;;;6.10;99.90;;;;;;4937278;28;20524;-82
2022/03/28 06:45:24;;;;;;;30.42;14.32;;;6.10;99.90;;;;;;4953414;28;20437;-82
2022/03/28 06:47:51;;;;;;;32.75;16.27;;;6.00;99.90;;;;;;4934233;28;20436;-82
2022/03/28 06:50:18;;;;;;;31.08;17.25;;;6.00;99.90;;;;;;4952228;28;20520;-82
2022/03/28 06:52:43;;;;;;;21.25;10.95;;;6.00;99.90;;;;;;4928314;28;20038;-82
2022/03/28 06:55:10;;;;;;;32.70;15.73;;;6.20;99.90;;;;;;4951689;28;20074;-82
2022/03/28 06:57:38;;;;;;;34.70;15.57;;;6.40;99.90;;;;;;4950684;28;20057;-82
2022/03/28 07:00:10;;;;;;;34.15;15.88;;;6.40;99.90;;;;;;4937812;28;20045;-83
2022/03/28 07:02:39;;;;;;;15.68;8.38;;;6.60;99.90;;;;;;4933865;28;20134;-83
2022/03/28 07:05:08;;;;;;;18.25;10.50;;;6.70;99.90;;;;;;4932751;28;20148;-83
2022/03/28 07:07:49;;;;;;;23.17;12.27;;;6.90;99.90;;;;;;4938590;28;20034;-82
2022/03/28 07:10:18;;;;;;;24.88;14.50;;;7.10;99.90;;;;;;4965337;28;20461;-83
2022/03/28 07:12:54;;;;;;;29.20;15.10;;;7.10;99.90;;;;;;4931816;28;20034;-83
2022/03/28 07:15:19;;;;;;;26.55;15.07;;;7.10;99.90;;;;;;4950369;28;20137;-83
2022/03/28 07:17:51;;;;;;;34.03;17.10;;;7.20;99.90;;;;;;4949282;28;20541;-81
2022/03/28 07:20:18;;;;;;;38.45;15.77;;;7.30;99.90;;;;;;4939744;28;20092;-81
2022/03/28 07:22:44;;;;;;;29.05;15.48;;;7.50;99.90;;;;;;4937607;28;20041;-81
2022/03/28 07:25:10;;;;;;;32.00;16.00;;;7.50;99.90;;;;;;4949622;28;20482;-81
2022/03/28 07:27:38;;;;;;;28.23;14.52;;;7.70;99.90;;;;;;4930987;28;20095;-81
2022/03/28 07:30:05;;;;;;;24.15;13.60;;;7.80;99.90;;;;;;4941112;28;20517;-81
2022/03/28 07:32:30;;;;;;;22.38;12.35;;;7.90;99.90;;;;;;4954260;28;20049;-82
2022/03/28 07:34:56;;;;;;;26.13;14.70;;;8.00;99.90;;;;;;4965090;28;20363;-81
2022/03/28 07:37:22;;;;;;;33.42;15.57;;;8.10;99.90;;;;;;4938444;28;20026;-81
2022/03/28 07:39:48;;;;;;;28.67;13.60;;;8.20;99.90;;;;;;4950470;28;20041;-83
2022/03/28 07:42:13;;;;;;;28.20;13.43;;;8.30;99.90;;;;;;4942600;28;20126;-82
2022/03/28 07:44:39;;;;;;;27.33;13.80;;;8.60;99.90;;;;;;4950071;28;20034;-82
2022/03/28 07:47:08;;;;;;;29.90;14.48;;;8.80;99.90;;;;;;4955082;28;20026;-82
2022/03/28 07:49:35;;;;;;;26.77;14.07;;;8.90;99.90;;;;;;4935119;28;20034;-81
2022/03/28 07:52:01;;;;;;;24.83;14.38;;;9.00;99.90;;;;;;4941940;28;20034;-82
2022/03/28 07:54:27;;;;;;;24.58;15.38;;;9.00;99.90;;;;;;4941110;28;20038;-82
2022/03/28 07:56:52;;;;;;;32.25;15.98;;;9.10;99.90;;;;;;4947814;28;21473;-82
2022/03/28 07:59:18;;;;;;;31.80;15.90;;;9.10;99.90;;;;;;4957938;28;20120;-81
2022/03/28 08:01:43;;;;;;;30.00;15.65;;;9.20;99.90;;;;;;4940373;28;20120;-83
2022/03/28 08:04:09;;;;;;;30.92;16.67;;;9.40;99.90;;;;;;4968388;28;20050;-82
2022/03/28 08:06:34;;;;;;;23.75;12.73;;;9.30;99.90;;;;;;4948057;28;20043;-81
2022/03/28 08:09:00;;;;;;;32.05;17.50;;;9.70;99.90;;;;;;4962854;28;20081;-82
2022/03/28 08:11:30;;;;;;;36.22;18.17;;;10.00;99.90;;;;;;4942340;28;20481;-83
2022/03/28 08:13:56;;;;;;;20.33;9.40;;;10.20;99.90;;;;;;4943920;28;20053;-83
2022/03/28 08:16:21;;;;;;;27.45;16.00;;;10.30;99.90;;;;;;4951346;28;20038;-82
2022/03/28 08:18:49;;;;;;;36.42;18.10;;;10.50;99.90;;;;;;4940476;28;20038;-81
2022/03/28 08:21:15;;;;;;;18.85;11.00;;;10.60;99.90;;;;;;4961851;28;20098;-82
2022/03/28 08:23:41;;;;;;;16.10;8.75;;;10.80;99.90;;;;;;4954035;28;20026;-82
2022/03/28 08:26:09;;;;;;;34.65;18.90;;;11.20;99.90;;;;;;4929127;28;20155;-81
2022/03/28 08:28:34;;;;;;;17.65;9.30;;;11.50;99.90;;;;;;4963427;28;20474;-82
2022/03/28 08:31:00;;;;;;;22.52;11.43;;;11.80;99.90;;;;;;4971659;28;20046;-80
2022/03/28 08:33:26;;;;;;;34.80;18.42;;;11.70;99.90;;;;;;4954797;28;20045;-82
2022/03/28 08:35:52;;;;;;;30.98;18.08;;;11.70;99.90;;;;;;4963274;28;20045;-82
2022/03/28 08:38:18;;;;;;;29.25;17.73;;;11.50;99.90;;;;;;4944966;28;20042;-81
2022/03/28 08:40:44;;;;;;;33.85;18.33;;;11.60;99.90;;;;;;4954602;28;20415;-82
2022/03/28 08:43:09;;;;;;;33.53;19.45;;;11.60;99.90;;;;;;4967487;28;20031;-83
2022/03/28 08:45:42;;;;;;;33.53;19.55;;;11.50;99.90;;;;;;4958483;28;20045;-83
2022/03/28 08:48:08;;;;;;;36.80;20.30;;;11.60;99.90;;;;;;4945946;28;20372;-83
2022/03/28 08:50:34;;;;;;;33.40;18.45;;;12.20;99.90;;;;;;4940521;28;20178;-83
2022/03/28 08:52:59;;;;;;;19.98;11.18;;;12.50;99.90;;;;;;4944649;28;20034;-82
2022/03/28 08:55:25;;;;;;;19.45;11.07;;;13.50;99.90;;;;;;4944756;28;20618;-82
2022/03/28 08:57:51;;;;;;;28.13;15.30;;;13.80;99.90;;;;;;4940922;28;20034;-81
2022/03/28 09:00:18;;;;;;;35.70;19.50;;;13.10;99.90;;;;;;4968052;28;20045;-81
2022/03/28 09:02:47;;;;;;;24.25;13.07;;;13.40;99.90;;;;;;4936921;28;20030;-82
2022/03/28 09:05:13;;;;;;;34.22;18.23;;;13.90;99.90;;;;;;4944532;28;20084;-80
2022/03/28 09:07:39;;;;;;;33.33;19.40;;;13.70;99.90;;;;;;4952255;28;20049;-82
2022/03/28 09:10:12;;;;;;;31.98;19.42;;;13.40;99.90;;;;;;4927340;28;20026;-82
2022/03/28 09:12:59;;;;;;;33.95;18.77;;;13.20;99.90;;;;;;4952188;28;20535;-81
2022/03/28 09:15:25;;;;;;;23.60;14.45;;;13.20;99.90;;;;;;4961966;28;20042;-81
2022/03/28 09:17:56;;;;;;;28.52;17.73;;;14.90;99.90;;;;;;4964358;28;20039;-81
2022/03/28 09:20:23;;;;;;;20.80;11.48;;;15.40;99.90;;;;;;4931210;28;20034;-81
2022/03/28 09:22:52;;;;;;;29.95;16.60;;;15.20;99.90;;;;;;4946275;28;20076;-82
2022/03/28 09:25:19;;;;;;;34.67;19.30;;;15.70;99.90;;;;;;4922504;28;20027;-82
2022/03/28 09:27:45;;;;;;;25.20;15.93;;;15.70;99.90;;;;;;4929748;28;20031;-81
2022/03/28 09:30:14;;;;;;;27.23;16.92;;;15.80;99.90;;;;;;4943748;28;20030;-81
2022/03/28 09:32:52;;;;;;;28.20;16.77;;;15.70;99.90;;;;;;4965347;28;20030;-81
2022/03/28 09:35:21;;;;;;;21.17;12.95;;;15.80;99.90;;;;;;4949923;28;20034;-81
2022/03/28 09:37:58;;;;;;;24.80;14.25;;;16.30;99.90;;;;;;4921355;28;20146;-81
2022/03/28 09:40:34;;;;;;;29.55;18.58;;;17.40;99.90;;;;;;4949399;28;20479;-83
2022/03/28 09:43:22;;;;;;;19.75;11.90;;;17.00;99.90;;;;;;4966348;28;20031;-82
2022/03/28 09:45:52;;;;;;;29.38;17.67;;;16.70;99.90;;;;;;4954072;28;20045;-82
2022/03/28 09:48:22;;;;;;;32.00;19.52;;;16.80;99.90;;;;;;4935412;28;20049;-82
2022/03/28 09:51:01;;;;;;;33.95;20.15;;;16.60;99.90;;;;;;4935182;28;20092;-82
2022/03/28 09:53:39;;;;;;;29.20;16.90;;;15.70;99.90;;;;;;4952328;28;20038;-83
2022/03/28 09:56:06;;;;;;;33.45;21.05;;;15.20;99.90;;;;;;4938326;28;20038;-82
2022/03/28 09:58:48;;;;;;;39.63;22.50;;;15.10;99.90;;;;;;4945771;28;20030;-83
2022/03/28 10:01:29;;;;;;;38.50;20.33;;;15.20;99.90;;;;;;4963125;28;20049;-83
2022/03/28 10:03:59;;;;;;;34.72;20.40;;;16.00;99.90;;;;;;4927453;28;20034;-83
2022/03/28 10:06:24;;;;;;;22.55;13.85;;;16.50;99.90;;;;;;4922284;28;20027;-83
2022/03/28 10:08:53;;;;;;;24.67;14.50;;;16.70;99.90;;;;;;4932998;28;20608;-83
2022/03/28 10:11:18;;;;;;;29.08;17.45;;;18.50;99.90;;;;;;4935195;28;20045;-83
2022/03/28 10:13:44;;;;;;;38.10;22.48;;;18.90;99.90;;;;;;4940329;28;20504;-83
2022/03/28 10:16:10;;;;;;;34.35;21.73;;;17.50;99.90;;;;;;4924189;28;20117;-82
2022/03/28 10:18:40;;;;;;;35.17;21.38;;;16.50;99.90;;;;;;4923508;28;20080;-83
2022/03/28 10:21:45;;;;;;;33.85;20.95;;;16.50;99.90;;;;;;4937231;28;20397;-83
2022/03/28 10:24:23;;;;;;;33.33;17.17;;;17.40;99.90;;;;;;4955674;28;20057;-85
2022/03/28 10:26:53;;;;;;;31.00;19.75;;;18.20;99.90;;;;;;4966500;28;20035;-83
2022/03/28 10:29:22;;;;;;;28.50;18.65;;;17.80;99.90;;;;;;4932789;28;20057;-84
2022/03/28 10:31:56;;;;;;;32.33;18.15;;;17.50;99.90;;;;;;4926132;28;20045;-83
2022/03/28 10:34:45;;;;;;;26.85;16.02;;;18.80;99.90;;;;;;4948747;28;20042;-83
2022/03/28 10:37:24;;;;;;;38.25;22.55;;;18.30;99.90;;;;;;4987174;28;20161;-83
2022/03/28 10:39:53;;;;;;;23.63;13.82;;;18.90;99.90;;;;;;4925640;28;20506;-82
2022/03/28 10:42:23;;;;;;;22.92;13.40;;;19.20;99.90;;;;;;4931680;28;20036;-83
2022/03/28 10:45:04;;;;;;;25.52;16.17;;;20.20;99.70;;;;;;4933508;28;20549;-83
2022/03/28 10:47:52;;;;;;;38.47;22.08;;;20.10;98.80;;;;;;4950886;28;20030;-83
2022/03/28 10:50:28;;;;;;;33.95;21.23;;;18.00;99.90;;;;;;4957720;28;20481;-83
2022/03/28 10:53:08;;;;;;;38.60;21.98;;;17.60;99.90;;;;;;4934758;28;20546;-83
2022/03/28 10:55:37;;;;;;;28.35;16.90;;;17.60;99.90;;;;;;4964216;28;20018;-84
2022/03/28 10:58:31;;;;;;;35.22;21.33;;;17.90;99.90;;;;;;4931390;28;20085;-83
2022/03/28 11:01:08;;;;;;;33.13;20.67;;;17.40;99.90;;;;;;4945371;28;20026;-84
2022/03/28 11:03:58;;;;;;;37.15;21.52;;;17.60;99.90;;;;;;4980739;28;20081;-83
2022/03/28 11:06:45;;;;;;;23.27;15.15;;;17.60;99.90;;;;;;4951861;28;20022;-85
2022/03/28 11:09:12;;;;;;;38.65;24.33;;;18.10;99.90;;;;;;4989185;28;20097;-85
2022/03/28 11:12:06;;;;;;;31.80;19.02;;;18.30;99.90;;;;;;4929003;28;20102;-85
2022/03/28 11:14:41;;;;;;;33.40;20.20;;;18.50;99.90;;;;;;4960056;28;20038;-85
2022/03/28 11:17:31;;;;;;;24.13;14.30;;;19.00;99.90;;;;;;4934715;28;20038;-85
2022/03/28 11:20:08;;;;;;;26.17;15.63;;;20.10;99.90;;;;;;4970793;28;20850;-85
2022/03/28 11:22:49;;;;;;;25.48;14.15;;;21.90;95.40;;;;;;4944160;28;20090;-85
2022/03/28 11:25:27;;;;;;;18.05;12.25;;;22.10;93.60;;;;;;4960446;28;20085;-86
2022/03/28 11:28:22;;;;;;;32.88;20.75;;;22.00;92.70;;;;;;4976322;28;20041;-86
2022/03/28 11:31:10;;;;;;;31.42;20.30;;;20.30;93.90;;;;;;4943936;28;20085;-86
2022/03/28 11:33:48;;;;;;;28.55;17.88;;;19.70;96.70;;;;;;4927442;28;20065;-86
2022/03/28 11:36:24;;;;;;;26.33;16.40;;;21.10;95.60;;;;;;4930783;28;20165;-87
2022/03/28 11:38:55;;;;;;;29.95;18.25;;;20.70;96.30;;;;;;4928757;28;20107;-86
2022/03/28 11:41:25;;;;;;;23.63;15.70;;;19.90;98.10;;;;;;4925126;28;20122;-86
2022/03/28 11:43:57;;;;;;;22.17;12.85;;;20.40;97.50;;;;;;4931150;28;20023;-86
2022/03/28 11:46:27;;;;;;;38.58;24.63;;;20.80;96.20;;;;;;4927694;28;20054;-86
2022/03/28 11:49:05;;;;;;;37.45;22.45;;;20.20;95.90;;;;;;4932770;28;20419;-86
2022/03/28 11:51:46;;;;;;;38.10;24.45;;;19.30;96.90;;;;;;4965789;28;20042;-87
2022/03/28 11:54:16;;;;;;;39.58;22.80;;;20.30;92.90;;;;;;4926757;28;20586;-86
2022/03/28 11:59:29;;;;;;;39.58;22.75;;;19.10;95.30;;;;;;4960217;28;20041;-87
2022/03/28 12:02:06;;;;;;;37.67;22.45;;;19.30;96.10;;;;;;4929003;28;20034;-86
2022/03/28 12:04:34;;;;;;;33.15;21.13;;;20.50;95.80;;;;;;4968432;28;20031;-86
2022/03/28 12:07:00;;;;;;;24.15;12.82;;;20.30;94.70;;;;;;4927164;28;20027;-86
2022/03/28 12:09:25;;;;;;;29.60;20.00;;;20.90;96.20;;;;;;4935488;28;20410;-88
2022/03/28 12:11:54;;;;;;;24.88;14.82;;;22.40;92.10;;;;;;4937375;28;20045;-88
2022/03/28 12:14:22;;;;;;;22.60;12.68;;;23.00;92.00;;;;;;4930420;28;20056;-84
2022/03/28 12:16:55;;;;;;;30.38;16.70;;;22.50;91.60;;;;;;4940309;28;20062;-88
2022/03/28 12:19:22;;;;;;;24.23;13.95;;;21.50;92.70;;;;;;4939127;28;20030;-87
2022/03/28 12:21:51;;;;;;;22.50;14.25;;;22.50;91.60;;;;;;4926996;28;20042;-88
2022/03/28 12:24:17;;;;;;;34.60;19.88;;;24.00;85.70;;;;;;4935773;28;20046;-87
2022/03/28 12:26:51;;;;;;;34.00;22.63;;;23.00;87.30;;;;;;4935037;28;20082;-88
2022/03/28 12:29:17;;;;;;;35.00;21.25;;;22.20;89.30;;;;;;4945320;28;20495;-88
2022/03/28 12:31:47;;;;;;;21.80;14.65;;;22.20;89.50;;;;;;4925057;28;20058;-88
2022/03/28 12:34:13;;;;;;;24.02;14.70;;;22.50;90.80;;;;;;4926755;28;20053;-87
2022/03/28 12:36:38;;;;;;;28.75;17.25;;;23.10;86.60;;;;;;4944391;28;20405;-88
2022/03/28 12:39:09;;;;;;;33.90;20.10;;;23.60;81.40;;;;;;4950843;28;20030;-89
2022/03/28 12:41:44;;;;;;;31.52;19.92;;;24.00;81.20;;;;;;4957758;28;20053;-89
2022/03/28 12:44:13;;;;;;;21.13;14.07;;;23.30;83.10;;;;;;4931083;28;20026;-88